createdAt,value
2018-04-02T00:00:37.080Z,1.89
2018-04-02T00:03:05.346Z,1.85
2018-04-02T00:05:33.725Z,1.81
2018-04-02T00:08:02.017Z,1.75
2018-04-02T00:10:30.345Z,1.77
2018-04-02T00:12:58.821Z,1.72
2018-04-02T00:15:27.145Z,1.84
2018-04-02T00:17:55.767Z,1.81
2018-04-02T00:20:24.049Z,1.78
2018-04-02T00:22:52.324Z,1.88
2018-04-02T00:25:20.623Z,1.89
2018-04-02T00:27:49.052Z,1.89
2018-04-02T00:30:17.685Z,1.88
2018-04-02T00:32:46.153Z,1.87
2018-04-02T00:35:14.660Z,1.84
2018-04-02T00:37:42.969Z,1.93
2018-04-02T00:40:11.397Z,1.98
2018-04-02T00:42:39.740Z,2.05
2018-04-02T00:45:08.032Z,2.04
2018-04-02T00:47:36.332Z,2.01
2018-04-02T00:50:04.612Z,1.96
2018-04-02T00:52:33.081Z,1.96
2018-04-02T00:55:01.331Z,1.93
2018-04-02T00:57:29.989Z,1.82
2018-04-02T00:59:58.392Z,1.84
2018-04-02T01:02:26.721Z,1.93
2018-04-02T01:04:55.006Z,1.85
2018-04-02T01:07:23.359Z,1.85
2018-04-02T01:09:51.671Z,1.85
2018-04-02T01:12:20.062Z,1.99
2018-04-02T01:14:48.590Z,1.79
2018-04-02T01:17:17.078Z,1.93
2018-04-02T01:20:59.583Z,1.95
2018-04-02T01:23:27.984Z,1.90
2018-04-02T01:25:56.365Z,1.83
2018-04-02T01:28:24.700Z,1.96
2018-04-02T01:30:53.035Z,2.11
2018-04-02T01:33:21.273Z,1.99
2018-04-02T01:35:49.580Z,2.05
2018-04-02T01:38:17.850Z,2.04
2018-04-02T01:40:46.224Z,1.99
2018-04-02T01:43:14.649Z,2.17
2018-04-02T01:45:42.985Z,2.01
2018-04-02T01:48:11.504Z,1.98
2018-04-02T01:50:39.933Z,2.00
2018-04-02T01:53:08.198Z,1.96
2018-04-02T01:55:36.673Z,2.00
2018-04-02T01:58:04.960Z,1.96
2018-04-02T02:00:33.265Z,1.86
2018-04-02T02:03:01.545Z,1.84
2018-04-02T02:05:29.848Z,1.85
2018-04-02T02:07:58.120Z,1.67
2018-04-02T02:10:26.536Z,1.62
2018-04-02T02:12:54.884Z,1.57
2018-04-02T02:15:23.293Z,1.51
2018-04-02T02:17:51.568Z,1.42
2018-04-02T02:20:19.848Z,1.44
2018-04-02T02:22:48.205Z,1.42
2018-04-02T02:25:16.525Z,1.38
2018-04-02T02:27:44.896Z,1.30
2018-04-02T02:30:13.249Z,1.34
2018-04-02T02:32:41.554Z,1.17
2018-04-02T02:35:10.906Z,1.14
2018-04-02T02:37:39.186Z,1.15
2018-04-02T02:40:07.492Z,1.02
2018-04-02T02:42:35.797Z,1.02
2018-04-02T02:45:04.279Z,1.02
2018-04-02T02:47:32.547Z,0.71
2018-04-02T02:50:01.331Z,0.84
2018-04-02T02:52:29.685Z,0.81
2018-04-02T02:54:57.952Z,0.90
2018-04-02T02:57:26.333Z,0.85
2018-04-02T02:59:54.616Z,0.86
2018-04-02T03:02:22.962Z,0.78
2018-04-02T03:04:51.258Z,0.78
2018-04-02T03:07:19.632Z,0.66
2018-04-02T03:09:47.913Z,0.58
2018-04-02T03:12:16.260Z,0.63
2018-04-02T03:14:44.604Z,0.61
2018-04-02T03:17:12.969Z,0.61
2018-04-02T03:19:41.273Z,0.65
2018-04-02T03:22:09.608Z,0.56
2018-04-02T03:24:37.881Z,0.59
2018-04-02T03:27:06.361Z,0.53
2018-04-02T03:29:34.668Z,0.62
2018-04-02T03:32:03.128Z,0.61
2018-04-02T03:34:31.412Z,0.47
2018-04-02T03:36:59.747Z,0.44
2018-04-02T03:39:28.048Z,0.44
2018-04-02T03:41:56.368Z,0.47
2018-04-02T03:44:24.612Z,0.42
2018-04-02T03:46:52.973Z,0.45
2018-04-02T03:49:21.273Z,0.46
2018-04-02T03:51:49.583Z,0.48
2018-04-02T03:54:17.839Z,0.48
2018-04-02T03:56:46.297Z,0.44
2018-04-02T03:59:14.744Z,0.45
2018-04-02T04:01:43.072Z,0.34
2018-04-02T04:04:11.348Z,0.39
2018-04-02T04:06:39.684Z,0.40
2018-04-02T04:09:07.961Z,0.47
2018-04-02T04:11:36.288Z,0.43
2018-04-02T04:14:04.539Z,0.45
2018-04-02T04:16:32.913Z,0.43
2018-04-02T04:19:01.205Z,0.39
2018-04-02T04:21:29.532Z,0.36
2018-04-02T04:23:57.793Z,0.37
2018-04-02T04:26:26.229Z,0.25
2018-04-02T04:28:54.513Z,0.31
2018-04-02T04:31:22.861Z,0.28
2018-04-02T04:33:51.152Z,0.34
2018-04-02T04:36:19.515Z,0.46
2018-04-02T04:38:47.816Z,0.38
2018-04-02T04:41:16.117Z,0.40
2018-04-02T04:43:44.548Z,0.48
2018-04-02T04:46:12.871Z,0.48
2018-04-02T04:48:41.321Z,0.46
2018-04-02T04:51:09.768Z,0.48
2018-04-02T04:53:38.273Z,0.54
2018-04-02T04:56:06.713Z,0.67
2018-04-02T04:58:34.996Z,0.57
2018-04-02T05:01:03.365Z,0.69
2018-04-02T05:03:31.786Z,0.61
2018-04-02T05:06:00.722Z,0.69
2018-04-02T05:08:29.010Z,0.79
2018-04-02T05:10:57.349Z,0.79
2018-04-02T05:13:25.622Z,0.74
2018-04-02T05:15:54.101Z,0.76
2018-04-02T05:18:22.392Z,0.71
2018-04-02T05:20:50.764Z,0.84
2018-04-02T05:23:19.040Z,0.81
2018-04-02T05:25:47.367Z,0.89
2018-04-02T05:28:15.643Z,0.99
2018-04-02T05:30:44.116Z,0.96
2018-04-02T05:33:12.562Z,1.01
2018-04-02T05:35:41.161Z,0.99
2018-04-02T05:38:09.545Z,1.13
2018-04-02T05:40:37.843Z,1.25
2018-04-02T05:43:06.105Z,1.21
2018-04-02T05:45:35.310Z,1.13
2018-04-02T05:48:03.682Z,1.29
2018-04-02T05:50:32.024Z,1.32
2018-04-02T05:53:00.318Z,1.35
2018-04-02T05:55:28.675Z,1.45
2018-04-02T05:57:57.157Z,1.45
2018-04-02T06:00:25.870Z,1.55
2018-04-02T06:02:54.253Z,1.36
2018-04-02T06:05:22.685Z,1.36
2018-04-02T06:07:50.949Z,1.45
2018-04-02T06:10:19.304Z,1.55
2018-04-02T06:12:47.581Z,1.58
2018-04-02T06:15:15.901Z,1.43
2018-04-02T06:17:44.164Z,1.65
2018-04-02T06:20:13.422Z,1.75
2018-04-02T06:22:41.727Z,1.60
2018-04-02T06:25:10.150Z,1.56
2018-04-02T06:27:43.819Z,1.70
2018-04-02T06:30:17.868Z,1.73
2018-04-02T06:32:46.986Z,1.96
2018-04-02T06:35:15.632Z,1.89
2018-04-02T06:37:45.384Z,1.81
2018-04-02T06:40:13.698Z,1.69
2018-04-02T06:42:41.972Z,2.16
2018-04-02T06:45:10.271Z,2.17
2018-04-02T06:47:38.559Z,2.00
2018-04-02T06:50:06.920Z,2.18
2018-04-02T06:52:35.264Z,2.60
2018-04-02T06:55:03.520Z,2.71
2018-04-02T06:57:31.856Z,2.45
2018-04-02T07:00:00.096Z,2.49
2018-04-02T07:02:28.454Z,2.43
2018-04-02T07:04:56.736Z,2.21
2018-04-02T07:07:25.396Z,2.57
2018-04-02T07:09:53.638Z,2.95
2018-04-02T07:12:21.968Z,2.97
2018-04-02T07:14:50.357Z,3.14
2018-04-02T07:17:18.867Z,2.73
2018-04-02T07:19:47.124Z,2.82
2018-04-02T07:22:15.687Z,3.34
2018-04-02T07:24:44.081Z,3.32
2018-04-02T07:27:12.469Z,3.02
2018-04-02T07:29:40.841Z,3.35
2018-04-02T07:32:09.261Z,3.44
2018-04-02T07:34:37.556Z,3.58
2018-04-02T07:37:05.912Z,3.39
2018-04-02T07:39:34.201Z,3.56
2018-04-02T07:42:02.586Z,3.57
2018-04-02T07:44:30.889Z,3.67
2018-04-02T07:46:59.216Z,3.82
2018-04-02T07:49:27.716Z,3.62
2018-04-02T07:51:56.111Z,3.77
2018-04-02T07:54:24.438Z,3.89
2018-04-02T07:56:52.778Z,3.93
2018-04-02T07:59:21.122Z,4.09
2018-04-02T08:01:49.487Z,4.44
2018-04-02T08:04:17.831Z,4.35
2018-04-02T08:06:46.268Z,4.16
2018-04-02T08:09:14.607Z,4.37
2018-04-02T08:11:42.927Z,4.50
2018-04-02T08:14:11.382Z,4.95
2018-04-02T08:16:39.906Z,4.62
2018-04-02T08:19:08.211Z,4.83
2018-04-02T08:21:36.929Z,4.73
2018-04-02T08:24:05.184Z,4.76
2018-04-02T08:26:33.641Z,4.65
2018-04-02T08:29:01.921Z,4.72
2018-04-02T08:31:30.237Z,4.65
2018-04-02T08:33:58.692Z,4.65
2018-04-02T08:36:27.138Z,4.93
2018-04-02T08:38:55.678Z,5.02
2018-04-02T08:41:24.156Z,5.40
2018-04-02T08:43:52.517Z,5.40
2018-04-02T08:46:20.793Z,5.34
2018-04-02T08:48:49.094Z,5.30
2018-04-02T08:51:17.432Z,5.09
2018-04-02T08:53:45.848Z,5.36
2018-04-02T08:56:14.134Z,5.44
2018-04-02T08:58:42.405Z,5.39
2018-04-02T09:01:11.004Z,5.50
2018-04-02T09:03:39.332Z,6.02
2018-04-02T09:06:07.698Z,6.04
2018-04-02T09:08:35.988Z,6.32
2018-04-02T09:11:04.268Z,6.26
2018-04-02T09:13:32.528Z,6.06
2018-04-02T09:16:00.800Z,6.14
2018-04-02T09:18:29.084Z,6.49
2018-04-02T09:20:57.395Z,6.22
2018-04-02T09:23:25.865Z,6.34
2018-04-02T09:25:54.298Z,6.49
2018-04-02T09:28:22.593Z,6.54
2018-04-02T09:30:50.892Z,6.27
2018-04-02T09:33:19.361Z,6.35
2018-04-02T09:35:47.675Z,6.47
2018-04-02T09:38:15.972Z,6.47
2018-04-02T09:40:44.281Z,6.35
2018-04-02T09:43:12.671Z,7.14
2018-04-02T09:45:40.969Z,6.96
2018-04-02T09:48:09.353Z,7.15
2018-04-02T09:50:37.631Z,6.83
2018-04-02T09:53:05.910Z,7.11
2018-04-02T09:55:34.596Z,7.10
2018-04-02T09:58:02.935Z,6.78
2018-04-02T10:00:33.674Z,6.93
2018-04-02T10:03:01.920Z,7.33
2018-04-02T10:05:31.214Z,7.44
2018-04-02T10:07:59.490Z,7.53
2018-04-02T10:10:27.935Z,7.36
2018-04-02T10:12:56.138Z,7.92
2018-04-02T10:15:24.475Z,7.84
2018-04-02T10:17:52.811Z,7.78
2018-04-02T10:20:21.125Z,7.75
2018-04-02T10:22:49.456Z,7.94
2018-04-02T10:25:17.772Z,7.98
2018-04-02T10:27:46.040Z,7.98
2018-04-02T10:30:14.363Z,7.81
2018-04-02T10:32:42.612Z,8.20
2018-04-02T10:35:10.917Z,8.62
2018-04-02T10:37:39.248Z,8.36
2018-04-02T10:40:07.578Z,8.97
2018-04-02T10:42:35.900Z,8.43
2018-04-02T10:45:10.988Z,8.57
2018-04-02T10:47:39.874Z,9.12
2018-04-02T10:50:08.260Z,9.86
2018-04-02T10:52:36.584Z,9.09
2018-04-02T10:55:05.852Z,8.87
2018-04-02T10:57:34.316Z,8.53
2018-04-02T11:00:03.828Z,8.87
2018-04-02T11:02:32.153Z,9.60
2018-04-02T11:05:00.518Z,10.17
2018-04-02T11:07:28.985Z,8.81
2018-04-02T11:09:57.327Z,9.98
2018-04-02T11:12:25.719Z,10.93
2018-04-02T11:14:57.099Z,12.13
2018-04-02T11:17:25.414Z,12.77
2018-04-02T11:19:53.667Z,12.63
2018-04-02T11:22:21.982Z,12.95
2018-04-02T11:24:50.312Z,12.77
2018-04-02T11:27:18.652Z,12.35
2018-04-02T11:29:46.914Z,12.85
2018-04-02T11:32:15.485Z,13.24
2018-04-02T11:34:43.796Z,13.78
2018-04-02T11:37:12.268Z,14.88
2018-04-02T11:39:40.658Z,14.61
2018-04-02T11:42:23.907Z,14.08
2018-04-02T11:44:52.201Z,14.15
2018-04-02T11:47:20.579Z,14.33
2018-04-02T11:49:48.988Z,14.43
2018-04-02T11:52:17.354Z,14.95
2018-04-02T11:54:45.642Z,14.81
2018-04-02T11:57:14.021Z,15.45
2018-04-02T11:59:42.548Z,16.30
2018-04-02T12:02:10.861Z,16.79
2018-04-02T12:04:39.153Z,15.37
2018-04-02T12:07:07.454Z,16.00
2018-04-02T12:09:35.780Z,16.61
2018-04-02T12:12:04.098Z,15.73
2018-04-02T12:14:32.394Z,17.03
2018-04-02T12:17:00.689Z,16.99
2018-04-02T12:19:28.989Z,17.26
2018-04-02T12:21:57.273Z,18.38
2018-04-02T12:24:25.584Z,16.57
2018-04-02T12:26:53.892Z,17.11
2018-04-02T12:29:22.405Z,18.45
2018-04-02T12:31:50.701Z,18.53
2018-04-02T12:34:18.985Z,15.45
2018-04-02T12:36:47.276Z,19.12
2018-04-02T12:39:15.587Z,16.25
2018-04-02T12:41:44.026Z,16.60
2018-04-02T12:44:12.616Z,18.76
2018-04-02T12:46:40.964Z,19.71
2018-04-02T12:49:09.268Z,18.91
2018-04-02T12:51:37.740Z,18.86
2018-04-02T12:54:06.028Z,19.46
2018-04-02T12:56:34.881Z,20.46
2018-04-02T12:59:03.455Z,20.37
2018-04-02T13:01:31.732Z,19.17
2018-04-02T13:04:00.085Z,20.31
2018-04-02T13:06:28.372Z,19.48
2018-04-02T13:08:56.628Z,19.40
2018-04-02T13:11:24.952Z,21.23
2018-04-02T13:13:53.281Z,20.86
2018-04-02T13:16:21.585Z,19.91
2018-04-02T13:18:49.854Z,14.36
2018-04-02T13:21:18.176Z,19.32
2018-04-02T13:23:46.466Z,21.25
2018-04-02T13:26:14.751Z,21.43
2018-04-02T13:28:43.127Z,19.97
2018-04-02T13:31:11.521Z,20.12
2018-04-02T13:33:39.821Z,21.78
2018-04-02T13:36:08.120Z,21.11
2018-04-02T13:38:36.416Z,20.89
2018-04-02T13:41:04.963Z,21.01
2018-04-02T13:43:34.403Z,20.29
2018-04-02T13:46:02.896Z,20.35
2018-04-02T13:48:31.327Z,19.64
2018-04-02T13:50:59.717Z,19.09
2018-04-02T13:53:28.065Z,17.96
2018-04-02T13:55:56.471Z,17.29
2018-04-02T13:58:25.431Z,15.71
2018-04-02T14:00:54.192Z,18.00
2018-04-02T14:03:22.719Z,16.72
2018-04-02T14:05:51.188Z,18.62
2018-04-02T14:08:19.497Z,18.94
2018-04-02T14:10:47.814Z,19.42
2018-04-02T14:13:16.167Z,18.34
2018-04-02T14:15:44.849Z,16.52
2018-04-02T14:18:13.284Z,14.62
2018-04-02T14:20:41.608Z,13.82
2018-04-02T14:23:09.952Z,13.70
2018-04-02T14:25:38.253Z,12.73
2018-04-02T14:28:06.674Z,12.50
2018-04-02T14:30:35.008Z,12.13
2018-04-02T14:33:03.556Z,12.65
2018-04-02T14:35:31.865Z,12.71
2018-04-02T14:38:00.155Z,13.20
2018-04-02T14:40:28.467Z,12.91
2018-04-02T14:42:57.015Z,12.51
2018-04-02T14:45:25.313Z,12.87
2018-04-02T14:47:53.914Z,12.78
2018-04-02T14:50:22.252Z,12.84
2018-04-02T14:52:50.696Z,11.86
2018-04-02T14:55:19.004Z,12.07
2018-04-02T14:57:47.285Z,11.79
2018-04-02T15:00:15.679Z,11.85
2018-04-02T15:02:45.143Z,11.89
2018-04-02T15:05:14.338Z,11.66
2018-04-02T15:07:43.017Z,11.59
2018-04-02T15:10:11.467Z,11.98
2018-04-02T15:12:39.773Z,12.21
2018-04-02T15:15:08.151Z,11.95
2018-04-02T15:17:36.513Z,12.06
2018-04-02T15:20:04.861Z,11.96
2018-04-02T15:22:33.225Z,11.77
2018-04-02T15:25:01.528Z,11.37
2018-04-02T15:27:30.082Z,11.59
2018-04-02T15:29:58.365Z,11.63
2018-04-02T15:32:26.702Z,11.53
2018-04-02T15:34:55.834Z,11.39
2018-04-02T15:37:24.207Z,11.42
2018-04-02T15:39:52.829Z,11.45
2018-04-02T15:42:21.797Z,11.76
2018-04-02T15:44:50.873Z,11.84
2018-04-02T15:47:19.222Z,11.38
2018-04-02T15:49:47.565Z,11.54
2018-04-02T15:52:16.499Z,11.65
2018-04-02T15:54:44.876Z,11.92
2018-04-02T15:57:13.309Z,11.75
2018-04-02T15:59:41.553Z,11.47
2018-04-02T16:02:09.909Z,11.37
2018-04-02T16:04:38.276Z,11.18
2018-04-02T16:07:06.638Z,11.26
2018-04-02T16:09:34.985Z,11.15
2018-04-02T16:12:03.367Z,11.08
2018-04-02T16:14:31.629Z,11.13
2018-04-02T16:16:59.975Z,10.98
2018-04-02T16:19:28.262Z,10.93
2018-04-02T16:21:56.801Z,10.80
2018-04-02T16:24:25.266Z,10.79
2018-04-02T16:26:53.637Z,10.80
2018-04-02T16:30:25.013Z,10.51
2018-04-02T16:32:53.324Z,10.54
2018-04-02T16:35:21.668Z,10.66
2018-04-02T16:37:50.021Z,10.52
2018-04-02T16:40:19.901Z,10.35
2018-04-02T16:42:48.496Z,10.32
2018-04-02T16:45:16.936Z,10.41
2018-04-02T16:47:45.258Z,10.17
2018-04-02T16:50:13.617Z,10.08
2018-04-02T16:52:41.913Z,10.12
2018-04-02T16:55:10.289Z,10.09
2018-04-02T16:57:38.563Z,9.90
2018-04-02T17:00:06.944Z,9.88
2018-04-02T17:02:35.233Z,9.79
2018-04-02T17:05:03.559Z,9.79
2018-04-02T17:07:31.889Z,9.98
2018-04-02T17:10:00.177Z,10.01
2018-04-02T17:12:28.569Z,10.04
2018-04-02T17:14:56.953Z,9.98
2018-04-02T17:17:25.348Z,10.02
2018-04-02T17:19:53.757Z,9.98
2018-04-02T17:22:23.047Z,9.93
2018-04-02T17:24:51.608Z,9.87
2018-04-02T17:27:21.925Z,9.84
2018-04-02T17:29:52.633Z,9.83
2018-04-02T17:32:21.501Z,9.73
2018-04-02T17:34:49.829Z,9.65
2018-04-02T17:37:18.127Z,9.57
2018-04-02T17:39:46.454Z,9.59
2018-04-02T17:42:14.792Z,9.58
2018-04-02T17:44:43.115Z,9.57
2018-04-02T17:47:11.398Z,9.63
2018-04-02T17:49:39.791Z,9.58
2018-04-02T17:52:08.837Z,9.54
2018-04-02T17:54:37.275Z,9.23
2018-04-02T17:57:05.629Z,9.21
2018-04-02T17:59:33.925Z,9.17
2018-04-02T18:02:02.224Z,9.11
2018-04-02T18:04:32.046Z,9.28
2018-04-02T18:07:03.258Z,9.06
2018-04-02T18:09:34.515Z,9.09
2018-04-02T18:12:03.153Z,9.11
2018-04-02T18:14:31.489Z,9.06
2018-04-02T18:17:01.381Z,9.13
2018-04-02T18:19:29.791Z,9.12
2018-04-02T18:21:58.635Z,8.87
2018-04-02T18:24:27.038Z,8.92
2018-04-02T18:26:55.415Z,8.84
2018-04-02T18:29:25.142Z,8.86
2018-04-02T18:31:53.455Z,8.92
2018-04-02T18:34:21.717Z,8.76
2018-04-02T18:36:52.190Z,8.76
2018-04-02T18:39:20.932Z,8.82
2018-04-02T18:41:54.983Z,8.73
2018-04-02T18:44:23.285Z,8.61
2018-04-02T18:46:51.637Z,8.65
2018-04-02T18:49:19.960Z,8.76
2018-04-02T18:51:48.268Z,8.66
2018-04-02T18:54:16.560Z,8.75
2018-04-02T18:56:44.908Z,8.52
2018-04-02T18:59:13.272Z,8.44
2018-04-02T19:01:43.554Z,8.46
2018-04-02T19:04:12.892Z,8.47
2018-04-02T19:06:43.277Z,8.53
2018-04-02T19:09:13.110Z,8.45
2018-04-02T19:11:42.184Z,8.43
2018-04-02T19:14:10.476Z,8.45
2018-04-02T19:16:38.844Z,8.41
2018-04-02T19:19:07.203Z,8.39
2018-04-02T19:21:38.747Z,8.45
2018-04-02T19:24:08.330Z,8.61
2018-04-02T19:26:36.716Z,8.46
2018-04-02T19:29:06.121Z,8.53
2018-04-02T19:31:34.438Z,8.58
2018-04-02T19:34:02.846Z,8.53
2018-04-02T19:36:31.190Z,8.45
2018-04-02T19:39:01.172Z,8.31
2018-04-02T19:41:32.282Z,8.38
2018-04-02T19:44:01.228Z,8.39
2018-04-02T19:46:31.169Z,8.36
2018-04-02T19:49:01.434Z,8.41
2018-04-02T19:51:31.343Z,8.44
2018-04-02T19:53:59.700Z,8.38
2018-04-02T19:56:28.756Z,8.43
2018-04-02T19:58:57.505Z,8.27
2018-04-02T20:01:25.920Z,8.21
2018-04-02T20:03:54.306Z,8.19
2018-04-02T20:06:23.009Z,8.20
2018-04-02T20:08:51.303Z,8.17
2018-04-02T20:11:19.700Z,8.17
2018-04-02T20:13:48.664Z,8.16
2018-04-02T20:16:17.078Z,8.20
2018-04-02T20:18:45.680Z,8.28
2018-04-02T20:21:14.021Z,8.20
2018-04-02T20:23:43.862Z,7.99
2018-04-02T20:26:12.714Z,8.17
2018-04-02T20:28:42.080Z,7.96
2018-04-02T20:31:18.768Z,8.13
2018-04-02T20:33:47.280Z,7.98
2018-04-02T20:36:18.392Z,7.90
2018-04-02T20:38:47.303Z,8.09
2018-04-02T20:41:15.608Z,7.96
2018-04-02T20:43:44.249Z,8.01
2018-04-02T20:46:12.548Z,7.97
2018-04-02T20:48:40.892Z,7.82
2018-04-02T20:51:09.220Z,7.83
2018-04-02T20:53:37.825Z,7.84
2018-04-02T20:56:06.173Z,7.82
2018-04-02T20:58:34.456Z,7.80
2018-04-02T21:01:03.197Z,7.65
2018-04-02T21:03:31.931Z,7.71
2018-04-02T21:06:00.253Z,7.83
2018-04-02T21:08:28.749Z,7.74
2018-04-02T21:10:57.294Z,7.66
2018-04-02T21:13:25.952Z,7.76
2018-04-02T21:15:54.560Z,7.68
2018-04-02T21:18:23.237Z,7.50
2018-04-02T21:20:52.376Z,7.66
2018-04-02T21:25:59.436Z,7.53
2018-04-02T21:28:28.142Z,7.54
2018-04-02T21:30:56.776Z,7.59
2018-04-02T21:33:25.378Z,7.45
2018-04-02T21:35:53.757Z,7.49
2018-04-02T21:38:22.053Z,7.31
2018-04-02T21:40:50.487Z,7.34
2018-04-02T21:43:18.893Z,7.42
2018-04-02T21:45:47.942Z,7.45
2018-04-02T21:48:17.542Z,7.44
2018-04-02T21:50:47.916Z,7.34
2018-04-02T21:53:17.123Z,7.44
2018-04-02T21:55:46.087Z,7.49
2018-04-02T21:58:14.744Z,7.43
2018-04-02T22:00:44.907Z,7.33
2018-04-02T22:03:15.353Z,7.44
2018-04-02T22:05:44.670Z,7.47
2018-04-02T22:08:13.949Z,7.50
2018-04-02T22:10:42.545Z,7.34
2018-04-02T22:13:11.633Z,7.44
2018-04-02T22:15:41.223Z,7.34
2018-04-02T22:18:10.668Z,7.47
2018-04-02T22:20:39.252Z,7.44
2018-04-02T22:23:07.523Z,7.28
2018-04-02T22:25:35.840Z,7.29
2018-04-02T22:28:05.397Z,7.42
2018-04-02T22:30:34.628Z,7.39
2018-04-02T22:33:03.201Z,7.36
2018-04-02T22:35:37.733Z,7.22
2018-04-02T22:38:06.930Z,7.13
2018-04-02T22:40:38.630Z,7.11
2018-04-02T22:43:10.850Z,7.10
2018-04-02T22:45:40.476Z,7.09
2018-04-02T22:48:09.326Z,7.16
2018-04-02T22:50:39.700Z,7.14
2018-04-02T22:53:08.483Z,7.19
2018-04-02T22:55:38.498Z,7.20
2018-04-02T22:58:07.588Z,7.23
2018-04-02T23:00:36.557Z,7.09
2018-04-02T23:03:05.410Z,7.18
2018-04-02T23:05:33.806Z,7.03
2018-04-02T23:08:02.150Z,7.04
2018-04-02T23:10:30.501Z,6.85
2018-04-02T23:12:58.916Z,7.02
2018-04-02T23:15:30.037Z,7.05
2018-04-02T23:17:58.345Z,7.09
2018-04-02T23:20:26.848Z,7.03
2018-04-02T23:22:55.281Z,6.96
2018-04-02T23:25:23.597Z,6.74
2018-04-02T23:27:51.865Z,6.87
2018-04-02T23:30:20.156Z,6.68
2018-04-02T23:32:48.427Z,6.80
2018-04-02T23:35:16.820Z,6.76
2018-04-02T23:37:45.157Z,6.73
2018-04-02T23:40:13.560Z,6.78
2018-04-02T23:42:41.920Z,6.76
2018-04-02T23:45:10.400Z,6.81
2018-04-02T23:47:38.718Z,7.00
2018-04-02T23:50:07.037Z,6.90
2018-04-02T23:52:35.346Z,6.88
2018-04-02T23:55:03.677Z,6.86
2018-04-02T23:57:32.044Z,6.84
